createdAt,value
2023-05-01T00:03:25.380Z,73.98
2023-05-01T00:08:28.663Z,74.30
2023-05-01T00:13:32.249Z,74.54
2023-05-01T00:18:35.157Z,74.70
2023-05-01T00:23:38.126Z,74.46
2023-05-01T00:28:40.897Z,74.70
2023-05-01T00:33:43.843Z,74.90
2023-05-01T00:38:46.815Z,75.37
2023-05-01T00:43:49.847Z,75.30
2023-05-01T00:48:53.408Z,75.54
2023-05-01T00:54:14.753Z,75.76
2023-05-01T00:59:36.617Z,75.76
2023-05-01T01:04:58.346Z,75.71
2023-05-01T01:10:10.503Z,75.07
2023-05-01T01:15:28.131Z,74.61
2023-05-01T01:20:59.200Z,74.39
2023-05-01T01:26:28.544Z,74.04
2023-05-01T01:32:17.433Z,73.47
2023-05-01T01:37:41.280Z,73.36
2023-05-01T01:42:49.849Z,73.11
2023-05-01T01:47:55.002Z,72.59
2023-05-01T01:53:00.744Z,72.17
2023-05-01T01:58:05.685Z,71.90
2023-05-01T02:03:11.017Z,72.00
2023-05-01T02:08:15.079Z,71.99
2023-05-01T02:13:21.227Z,71.77
2023-05-01T02:18:26.671Z,70.79
2023-05-01T02:23:31.250Z,70.14
2023-05-01T02:28:36.216Z,70.61
2023-05-01T02:33:39.357Z,70.42
2023-05-01T02:38:42.914Z,69.96
2023-05-01T02:43:50.572Z,69.62
2023-05-01T02:48:55.350Z,69.27
2023-05-01T02:53:59.755Z,70.47
2023-05-01T02:59:03.202Z,71.50
2023-05-01T03:04:06.903Z,71.66
2023-05-01T03:09:09.651Z,70.92
2023-05-01T03:14:32.417Z,71.54
2023-05-01T03:19:53.884Z,72.53
2023-05-01T03:24:56.969Z,71.98
2023-05-01T03:29:59.784Z,71.63
2023-05-01T03:35:04.225Z,70.76
2023-05-01T03:40:08.096Z,69.98
2023-05-01T03:45:29.673Z,70.02
2023-05-01T03:50:52.290Z,69.81
2023-05-01T03:55:55.693Z,69.58
2023-05-01T04:01:01.122Z,70.13
2023-05-01T04:06:23.235Z,69.75
2023-05-01T04:11:26.462Z,69.21
2023-05-01T04:16:31.068Z,69.54
2023-05-01T04:21:34.267Z,69.57
2023-05-01T04:26:37.196Z,69.64
2023-05-01T04:31:41.920Z,68.74
2023-05-01T04:36:45.493Z,67.97
2023-05-01T04:41:48.356Z,66.48
2023-05-01T04:46:51.697Z,65.86
2023-05-01T04:51:55.169Z,66.33
2023-05-01T04:57:00.193Z,65.80
2023-05-01T05:02:03.968Z,66.51
2023-05-01T05:07:07.493Z,66.44
2023-05-01T05:12:30.365Z,66.92
2023-05-01T05:17:53.376Z,68.09
2023-05-01T05:22:57.707Z,67.79
2023-05-01T05:28:01.407Z,67.69
2023-05-01T05:33:05.469Z,67.74
2023-05-01T05:38:08.594Z,68.19
2023-05-01T05:43:13.719Z,67.21
2023-05-01T05:48:17.057Z,67.83
2023-05-01T05:53:21.748Z,67.57
2023-05-01T05:58:26.227Z,68.10
2023-05-01T06:03:30.579Z,67.20
2023-05-01T06:08:37.996Z,66.28
2023-05-01T06:13:43.603Z,65.67
2023-05-01T06:18:46.868Z,65.75
2023-05-01T06:23:49.637Z,64.63
2023-05-01T06:28:59.072Z,65.22
2023-05-01T06:34:02.837Z,63.81
2023-05-01T06:39:13.219Z,63.75
2023-05-01T06:44:16.994Z,62.64
2023-05-01T06:49:19.820Z,62.56
2023-05-01T06:54:22.756Z,62.04
2023-05-01T06:59:44.057Z,61.41
2023-05-01T07:04:47.207Z,63.38
2023-05-01T07:10:08.734Z,63.17
2023-05-01T07:15:11.874Z,63.02
2023-05-01T07:20:35.076Z,64.00
2023-05-01T07:25:57.021Z,64.60
2023-05-01T07:31:01.840Z,64.50
2023-05-01T07:36:05.112Z,63.73
2023-05-01T07:41:08.286Z,63.37
2023-05-01T07:46:11.541Z,63.34
2023-05-01T07:51:14.970Z,63.18
2023-05-01T07:56:18.064Z,64.27
2023-05-01T08:01:21.379Z,64.72
2023-05-01T08:06:24.749Z,63.99
2023-05-01T08:11:29.610Z,64.78
2023-05-01T08:16:33.770Z,62.98
2023-05-01T08:21:36.736Z,62.15
2023-05-01T08:26:39.794Z,62.35
2023-05-01T08:31:44.016Z,61.59
2023-05-01T08:36:47.012Z,60.82
2023-05-01T08:41:50.300Z,61.39
2023-05-01T08:46:53.278Z,63.07
2023-05-01T08:51:57.237Z,62.55
2023-05-01T08:57:04.711Z,62.53
2023-05-01T09:02:28.291Z,61.71
2023-05-01T09:07:31.711Z,61.39
2023-05-01T09:12:58.505Z,61.45
2023-05-01T09:18:03.444Z,60.31
2023-05-01T09:23:25.384Z,61.47
2023-05-01T09:28:48.158Z,60.67
2023-05-01T09:33:54.690Z,59.59
2023-05-01T09:38:58.407Z,59.92
2023-05-01T09:44:01.961Z,58.64
2023-05-01T09:49:04.871Z,57.32
2023-05-01T09:54:17.388Z,56.47
2023-05-01T09:59:21.786Z,57.10
2023-05-01T10:04:35.134Z,54.79
2023-05-01T10:09:38.564Z,55.05
2023-05-01T10:14:58.016Z,55.34
2023-05-01T10:20:01.330Z,55.01
2023-05-01T10:25:14.289Z,55.32
2023-05-01T10:30:18.380Z,56.06
2023-05-01T10:35:28.156Z,56.78
2023-05-01T10:40:40.281Z,58.46
2023-05-01T10:45:45.381Z,59.67
2023-05-01T10:51:22.769Z,59.10
2023-05-01T10:56:32.509Z,60.29
2023-05-01T11:01:40.076Z,62.13
2023-05-01T11:07:06.163Z,62.33
2023-05-01T11:12:46.263Z,63.66
2023-05-01T11:17:50.110Z,62.33
2023-05-01T11:22:54.869Z,61.09
2023-05-01T11:28:00.899Z,62.34
2023-05-01T11:33:05.820Z,63.52
2023-05-01T11:38:27.842Z,62.11
2023-05-01T11:43:32.140Z,61.79
2023-05-01T11:48:35.339Z,60.76
2023-05-01T11:53:38.278Z,61.45
2023-05-01T11:58:41.508Z,61.45
2023-05-01T12:03:44.825Z,62.59
2023-05-01T12:08:51.351Z,63.24
2023-05-01T12:13:55.184Z,64.34
2023-05-01T12:18:58.857Z,64.26
2023-05-01T12:24:09.359Z,64.44
2023-05-01T12:29:41.693Z,64.85
2023-05-01T12:34:45.208Z,64.83
2023-05-01T12:39:48.687Z,63.96
2023-05-01T12:45:00.486Z,63.05
2023-05-01T12:50:04.560Z,61.70
2023-05-01T12:55:09.300Z,60.12
2023-05-01T13:00:13.479Z,57.21
2023-05-01T13:05:16.562Z,56.32
2023-05-01T13:10:38.389Z,54.87
2023-05-01T13:15:41.573Z,54.98
2023-05-01T13:20:44.906Z,52.98
2023-05-01T13:25:48.248Z,52.16
2023-05-01T13:30:51.393Z,53.42
2023-05-01T13:35:54.426Z,54.00
2023-05-01T13:40:57.364Z,53.48
2023-05-01T13:46:00.766Z,51.93
2023-05-01T13:51:05.029Z,51.70
2023-05-01T13:56:15.471Z,52.72
2023-05-01T14:01:20.992Z,52.91
2023-05-01T14:06:48.804Z,53.84
2023-05-01T14:11:52.027Z,55.57
2023-05-01T14:16:55.190Z,54.27
2023-05-01T14:21:58.254Z,53.60
2023-05-01T14:27:02.077Z,55.45
2023-05-01T14:32:05.491Z,56.96
2023-05-01T14:37:10.146Z,57.84
2023-05-01T14:42:13.148Z,57.85
2023-05-01T14:47:22.107Z,58.49
2023-05-01T14:52:25.064Z,59.09
2023-05-01T14:57:47.581Z,58.93
2023-05-01T15:02:51.783Z,57.83
2023-05-01T15:08:00.648Z,57.90
2023-05-01T15:13:03.664Z,58.27
2023-05-01T15:18:07.695Z,58.02
2023-05-01T15:23:29.780Z,57.35
2023-05-01T15:28:33.213Z,57.68
2023-05-01T15:33:36.508Z,58.32
2023-05-01T15:38:39.420Z,58.37
2023-05-01T15:43:42.268Z,58.76
2023-05-01T15:48:46.485Z,59.00
2023-05-01T15:53:49.433Z,58.05
2023-05-01T15:58:52.225Z,58.05
2023-05-01T16:03:55.232Z,56.97
2023-05-01T16:08:59.503Z,56.51
2023-05-01T16:14:02.832Z,57.55
2023-05-01T16:19:06.244Z,58.15
2023-05-01T16:24:11.041Z,58.97
2023-05-01T16:29:14.092Z,60.10
2023-05-01T16:34:21.141Z,60.43
2023-05-01T16:39:24.411Z,60.91
2023-05-01T16:44:45.809Z,61.74
2023-05-01T16:49:48.725Z,62.10
2023-05-01T16:54:51.701Z,62.97
2023-05-01T16:59:54.545Z,63.35
2023-05-01T17:05:16.541Z,63.69
2023-05-01T17:10:19.634Z,64.49
2023-05-01T17:15:23.094Z,65.93
2023-05-01T17:20:26.074Z,66.75
2023-05-01T17:25:29.004Z,67.23
2023-05-01T17:30:32.045Z,66.98
2023-05-01T17:35:35.378Z,67.65
2023-05-01T17:40:38.225Z,68.64
2023-05-01T17:45:41.141Z,68.40
2023-05-01T17:50:44.422Z,67.88
2023-05-01T17:55:47.228Z,68.16
2023-05-01T18:00:50.049Z,67.83
2023-05-01T18:05:53.051Z,67.56
2023-05-01T18:10:56.166Z,67.92
2023-05-01T18:15:59.152Z,67.72
2023-05-01T18:21:02.303Z,67.74
2023-05-01T18:26:05.335Z,68.19
2023-05-01T18:31:08.531Z,69.04
2023-05-01T18:36:32.308Z,68.87
2023-05-01T18:41:35.213Z,69.02
2023-05-01T18:46:38.211Z,68.65
2023-05-01T18:51:41.219Z,69.53
2023-05-01T18:56:44.224Z,69.57
2023-05-01T19:01:47.889Z,70.02
2023-05-01T19:06:51.049Z,68.89
2023-05-01T19:11:53.969Z,69.00
2023-05-01T19:16:56.735Z,69.06
2023-05-01T19:21:59.673Z,69.14
2023-05-01T19:27:03.525Z,69.79
2023-05-01T19:32:07.322Z,70.16
2023-05-01T19:37:10.772Z,70.71
2023-05-01T19:42:14.728Z,70.85
2023-05-01T19:47:17.829Z,71.32
2023-05-01T19:52:39.282Z,71.09
2023-05-01T19:57:42.580Z,71.52
2023-05-01T20:02:45.532Z,72.19
2023-05-01T20:08:06.902Z,72.09
2023-05-01T20:13:11.080Z,72.41
2023-05-01T20:18:14.321Z,72.74
2023-05-01T20:23:19.117Z,72.92
2023-05-01T20:28:22.102Z,73.17
2023-05-01T20:33:43.508Z,73.69
2023-05-01T20:38:48.645Z,73.43
2023-05-01T20:44:10.095Z,73.21
2023-05-01T20:49:15.745Z,73.41
2023-05-01T20:54:19.183Z,73.06
2023-05-01T20:59:22.313Z,73.57
2023-05-01T21:04:25.265Z,74.05
2023-05-01T21:09:28.203Z,74.22
2023-05-01T21:14:31.320Z,74.89
2023-05-01T21:19:43.381Z,74.92
2023-05-01T21:24:51.873Z,74.93
2023-05-01T21:29:59.818Z,75.15
2023-05-01T21:35:04.019Z,75.07
2023-05-01T21:40:10.550Z,74.81
2023-05-01T21:45:15.325Z,75.01
2023-05-01T21:50:20.217Z,75.28
2023-05-01T21:55:26.430Z,75.43
2023-05-01T22:00:30.279Z,75.95
2023-05-01T22:05:33.575Z,75.95
2023-05-01T22:10:36.725Z,75.95
2023-05-01T22:15:39.766Z,75.83
2023-05-01T22:20:42.656Z,76.49
2023-05-01T22:25:45.686Z,76.66
2023-05-01T22:30:48.731Z,76.29
2023-05-01T22:35:51.645Z,75.70
2023-05-01T22:40:54.853Z,75.34
2023-05-01T22:45:57.951Z,75.72
2023-05-01T22:51:01.492Z,75.67
2023-05-01T22:56:04.993Z,75.63
2023-05-01T23:01:07.969Z,74.93
2023-05-01T23:06:11.342Z,75.59
2023-05-01T23:11:19.076Z,76.06
2023-05-01T23:16:44.738Z,76.33
2023-05-01T23:22:11.145Z,77.15
2023-05-01T23:27:19.148Z,76.95
2023-05-01T23:32:32.109Z,75.69
2023-05-01T23:37:35.139Z,76.05
2023-05-01T23:42:39.519Z,75.94
2023-05-01T23:47:42.649Z,77.13
2023-05-01T23:53:08.526Z,75.79
2023-05-01T23:58:30.282Z,76.06
